sensor_id;sensor_type;location;lat;lon;timestamp;pressure;altitude;pressure_sealevel;temperature;humidity
62725;BME280;49026;52.600;4.694;2023-10-31T00:00:03;99638.72;;;8.95;98.14
62725;BME280;49026;52.600;4.694;2023-10-31T00:02:29;99631.69;;;8.95;97.79
62725;BME280;49026;52.600;4.694;2023-10-31T00:04:54;99642.97;;;8.97;98.27
62725;BME280;49026;52.600;4.694;2023-10-31T00:07:20;99640.41;;;8.96;98.07
62725;BME280;49026;52.600;4.694;2023-10-31T00:09:45;99635.19;;;8.96;98.11
62725;BME280;49026;52.600;4.694;2023-10-31T00:12:10;99635.19;;;8.96;97.85
62725;BME280;49026;52.600;4.694;2023-10-31T00:14:36;99642.09;;;8.97;98.31
62725;BME280;49026;52.600;4.694;2023-10-31T00:17:01;99642.97;;;8.97;98.08
62725;BME280;49026;52.600;4.694;2023-10-31T00:19:27;99635.94;;;8.98;98.26
62725;BME280;49026;52.600;4.694;2023-10-31T00:21:52;99630.69;;;8.98;98.25
62725;BME280;49026;52.600;4.694;2023-10-31T00:24:17;99633.25;;;8.99;98.47
62725;BME280;49026;52.600;4.694;2023-10-31T00:26:45;99632.28;;;9.00;98.70
62725;BME280;49026;52.600;4.694;2023-10-31T00:29:10;99633.16;;;9.01;98.25
62725;BME280;49026;52.600;4.694;2023-10-31T00:31:36;99636.53;;;9.03;98.27
62725;BME280;49026;52.600;4.694;2023-10-31T00:34:02;99631.31;;;9.03;98.66
62725;BME280;49026;52.600;4.694;2023-10-31T00:36:27;99629.44;;;9.05;98.27
62725;BME280;49026;52.600;4.694;2023-10-31T00:38:52;99638.25;;;9.04;98.36
62725;BME280;49026;52.600;4.694;2023-10-31T00:41:18;99633.91;;;9.03;98.43
62725;BME280;49026;52.600;4.694;2023-10-31T00:43:43;99640.88;;;9.04;98.55
62725;BME280;49026;52.600;4.694;2023-10-31T00:46:08;99633.91;;;9.03;98.32
62725;BME280;49026;52.600;4.694;2023-10-31T00:48:33;99633.00;;;9.04;98.42
62725;BME280;49026;52.600;4.694;2023-10-31T00:51:03;99637.22;;;9.06;98.42
62725;BME280;49026;52.600;4.694;2023-10-31T00:53:29;99641.63;;;9.06;98.53
62725;BME280;49026;52.600;4.694;2023-10-31T00:55:54;99646.88;;;9.06;98.42
62725;BME280;49026;52.600;4.694;2023-10-31T00:58:19;99650.41;;;9.05;98.52
62725;BME280;49026;52.600;4.694;2023-10-31T01:00:44;99653.88;;;9.05;98.69
62725;BME280;49026;52.600;4.694;2023-10-31T01:03:10;99648.53;;;9.07;98.51
62725;BME280;49026;52.600;4.694;2023-10-31T01:05:35;99653.63;;;9.10;98.60
62725;BME280;49026;52.600;4.694;2023-10-31T01:08:00;99657.88;;;9.13;98.61
62725;BME280;49026;52.600;4.694;2023-10-31T01:10:26;99662.94;;;9.16;98.81
62725;BME280;49026;52.600;4.694;2023-10-31T01:12:51;99663.63;;;9.19;98.65
62725;BME280;49026;52.600;4.694;2023-10-31T01:15:16;99664.31;;;9.23;98.69
62725;BME280;49026;52.600;4.694;2023-10-31T01:17:42;99665.94;;;9.25;98.69
62725;BME280;49026;52.600;4.694;2023-10-31T01:20:09;99666.53;;;9.31;98.66
62725;BME280;49026;52.600;4.694;2023-10-31T01:22:35;99671.78;;;9.31;98.72
62725;BME280;49026;52.600;4.694;2023-10-31T01:25:01;99672.53;;;9.33;98.67
62725;BME280;49026;52.600;4.694;2023-10-31T01:27:29;99681.16;;;9.35;98.98
62725;BME280;49026;52.600;4.694;2023-10-31T01:29:54;99683.78;;;9.35;98.89
62725;BME280;49026;52.600;4.694;2023-10-31T01:32:19;99685.47;;;9.36;99.16
62725;BME280;49026;52.600;4.694;2023-10-31T01:34:49;99693.28;;;9.37;99.02
62725;BME280;49026;52.600;4.694;2023-10-31T01:37:17;99699.34;;;9.38;98.99
62725;BME280;49026;52.600;4.694;2023-10-31T01:39:44;99698.50;;;9.37;99.06
62725;BME280;49026;52.600;4.694;2023-10-31T01:42:09;99695.81;;;9.39;98.83
62725;BME280;49026;52.600;4.694;2023-10-31T01:44:35;99700.19;;;9.38;98.93
62725;BME280;49026;52.600;4.694;2023-10-31T01:47:00;99709.84;;;9.38;98.95
62725;BME280;49026;52.600;4.694;2023-10-31T01:49:25;99701.28;;;9.34;99.01
62725;BME280;49026;52.600;4.694;2023-10-31T01:51:51;99710.22;;;9.30;99.15
62725;BME280;49026;52.600;4.694;2023-10-31T01:54:19;99706.84;;;9.28;99.32
62725;BME280;49026;52.600;4.694;2023-10-31T01:56:45;99706.00;;;9.27;99.25
62725;BME280;49026;52.600;4.694;2023-10-31T01:59:18;99713.13;;;9.25;99.58
62725;BME280;49026;52.600;4.694;2023-10-31T02:01:43;99714.78;;;9.26;99.51
62725;BME280;49026;52.600;4.694;2023-10-31T02:04:09;99714.88;;;9.25;99.65
62725;BME280;49026;52.600;4.694;2023-10-31T02:06:34;99706.25;;;9.23;99.79
62725;BME280;49026;52.600;4.694;2023-10-31T02:09:04;99710.66;;;9.22;99.77
62725;BME280;49026;52.600;4.694;2023-10-31T02:11:29;99708.28;;;9.18;99.78
62725;BME280;49026;52.600;4.694;2023-10-31T02:13:54;99711.88;;;9.15;99.87
62725;BME280;49026;52.600;4.694;2023-10-31T02:16:20;99718.97;;;9.13;100.00
62725;BME280;49026;52.600;4.694;2023-10-31T02:18:45;99725.31;;;9.09;100.00
62725;BME280;49026;52.600;4.694;2023-10-31T02:21:10;99721.91;;;9.07;100.00
62725;BME280;49026;52.600;4.694;2023-10-31T02:23:35;99719.56;;;9.02;100.00
62725;BME280;49026;52.600;4.694;2023-10-31T02:26:01;99729.34;;;8.99;100.00
62725;BME280;49026;52.600;4.694;2023-10-31T02:28:27;99727.66;;;8.98;100.00
62725;BME280;49026;52.600;4.694;2023-10-31T02:30:53;99723.41;;;8.95;100.00
62725;BME280;49026;52.600;4.694;2023-10-31T02:33:20;99723.56;;;8.92;100.00
62725;BME280;49026;52.600;4.694;2023-10-31T02:35:45;99725.31;;;8.92;100.00
62725;BME280;49026;52.600;4.694;2023-10-31T02:38:10;99719.25;;;8.91;100.00
62725;BME280;49026;52.600;4.694;2023-10-31T02:40:36;99721.94;;;8.89;100.00
62725;BME280;49026;52.600;4.694;2023-10-31T02:43:01;99718.50;;;8.89;100.00
62725;BME280;49026;52.600;4.694;2023-10-31T02:45:29;99727.13;;;8.91;100.00
62725;BME280;49026;52.600;4.694;2023-10-31T02:47:55;99724.41;;;8.93;100.00
62725;BME280;49026;52.600;4.694;2023-10-31T02:50:20;99724.34;;;8.94;100.00
62725;BME280;49026;52.600;4.694;2023-10-31T02:52:45;99720.69;;;8.97;100.00
62725;BME280;49026;52.600;4.694;2023-10-31T02:55:11;99720.53;;;9.00;100.00
62725;BME280;49026;52.600;4.694;2023-10-31T02:57:36;99725.63;;;9.03;100.00
62725;BME280;49026;52.600;4.694;2023-10-31T03:00:02;99730.56;;;9.09;100.00
62725;BME280;49026;52.600;4.694;2023-10-31T03:02:27;99737.19;;;9.16;100.00
62725;BME280;49026;52.600;4.694;2023-10-31T03:04:53;99733.31;;;9.23;100.00
62725;BME280;49026;52.600;4.694;2023-10-31T03:07:18;99737.31;;;9.31;100.00
62725;BME280;49026;52.600;4.694;2023-10-31T03:09:46;99733.50;;;9.36;100.00
62725;BME280;49026;52.600;4.694;2023-10-31T03:12:11;99734.94;;;9.42;100.00
62725;BME280;49026;52.600;4.694;2023-10-31T03:14:38;99733.88;;;9.46;100.00
62725;BME280;49026;52.600;4.694;2023-10-31T03:17:04;99739.72;;;9.51;100.00
62725;BME280;49026;52.600;4.694;2023-10-31T03:19:29;99737.69;;;9.56;100.00
62725;BME280;49026;52.600;4.694;2023-10-31T03:21:54;99742.78;;;9.59;99.96
62725;BME280;49026;52.600;4.694;2023-10-31T03:24:19;99742.63;;;9.62;100.00
62725;BME280;49026;52.600;4.694;2023-10-31T03:26:47;99748.53;;;9.66;100.00
62725;BME280;49026;52.600;4.694;2023-10-31T03:29:12;99745.69;;;9.71;100.00
62725;BME280;49026;52.600;4.694;2023-10-31T03:31:37;99758.59;;;9.74;100.00
62725;BME280;49026;52.600;4.694;2023-10-31T03:34:05;99753.34;;;9.74;100.00
62725;BME280;49026;52.600;4.694;2023-10-31T03:36:33;99754.16;;;9.76;100.00
62725;BME280;49026;52.600;4.694;2023-10-31T03:39:01;99753.19;;;9.77;100.00
62725;BME280;49026;52.600;4.694;2023-10-31T03:41:27;99758.13;;;9.83;100.00
62725;BME280;49026;52.600;4.694;2023-10-31T03:43:52;99757.81;;;9.89;100.00
62725;BME280;49026;52.600;4.694;2023-10-31T03:46:17;99768.13;;;9.92;100.00
62725;BME280;49026;52.600;4.694;2023-10-31T03:48:43;99765.59;;;9.91;100.00
62725;BME280;49026;52.600;4.694;2023-10-31T03:51:08;99761.50;;;9.85;100.00
62725;BME280;49026;52.600;4.694;2023-10-31T03:53:35;99769.72;;;9.79;100.00
62725;BME280;49026;52.600;4.694;2023-10-31T03:56:01;99766.47;;;9.74;100.00
62725;BME280;49026;52.600;4.694;2023-10-31T03:58:26;99772.66;;;9.73;100.00
62725;BME280;49026;52.600;4.694;2023-10-31T04:00:54;99777.09;;;9.72;100.00
62725;BME280;49026;52.600;4.694;2023-10-31T04:03:20;99779.59;;;9.74;100.00
62725;BME280;49026;52.600;4.694;2023-10-31T04:05:45;99781.13;;;9.78;100.00
62725;BME280;49026;52.600;4.694;2023-10-31T04:08:12;99782.84;;;9.79;100.00
62725;BME280;49026;52.600;4.694;2023-10-31T04:10:40;99785.47;;;9.79;100.00
62725;BME280;49026;52.600;4.694;2023-10-31T04:13:08;99782.84;;;9.79;100.00
62725;BME280;49026;52.600;4.694;2023-10-31T04:15:33;99789.94;;;9.77;100.00
62725;BME280;49026;52.600;4.694;2023-10-31T04:18:00;99785.56;;;9.77;100.00
62725;BME280;49026;52.600;4.694;2023-10-31T04:20:25;99782.84;;;9.79;100.00
62725;BME280;49026;52.600;4.694;2023-10-31T04:22:50;99790.59;;;9.80;100.00
62725;BME280;49026;52.600;4.694;2023-10-31T04:25:20;99792.31;;;9.81;100.00
62725;BME280;49026;52.600;4.694;2023-10-31T04:27:47;99798.22;;;9.85;100.00
62725;BME280;49026;52.600;4.694;2023-10-31T04:30:13;99794.19;;;9.79;100.00
62725;BME280;49026;52.600;4.694;2023-10-31T04:32:38;99805.66;;;9.77;100.00
62725;BME280;49026;52.600;4.694;2023-10-31T04:35:03;99792.47;;;9.78;100.00
62725;BME280;49026;52.600;4.694;2023-10-31T04:37:29;99795.00;;;9.80;100.00
62725;BME280;49026;52.600;4.694;2023-10-31T04:39:54;99797.56;;;9.81;100.00
62725;BME280;49026;52.600;4.694;2023-10-31T04:42:21;99799.19;;;9.84;100.00
62725;BME280;49026;52.600;4.694;2023-10-31T04:44:48;99801.63;;;9.87;100.00
62725;BME280;49026;52.600;4.694;2023-10-31T04:47:15;99798.91;;;9.89;100.00
62725;BME280;49026;52.600;4.694;2023-10-31T04:49:41;99801.38;;;9.92;100.00
62725;BME280;49026;52.600;4.694;2023-10-31T04:52:08;99806.47;;;9.95;100.00
62725;BME280;49026;52.600;4.694;2023-10-31T04:54:33;99811.47;;;9.99;100.00
62725;BME280;49026;52.600;4.694;2023-10-31T04:56:59;99806.66;;;10.08;100.00
62725;BME280;49026;52.600;4.694;2023-10-31T04:59:24;99807.25;;;10.13;100.00
62725;BME280;49026;52.600;4.694;2023-10-31T05:01:52;99812.16;;;10.19;100.00
62725;BME280;49026;52.600;4.694;2023-10-31T05:04:19;99816.22;;;10.25;100.00
62725;BME280;49026;52.600;4.694;2023-10-31T05:06:44;99811.81;;;10.25;100.00
62725;BME280;49026;52.600;4.694;2023-10-31T05:09:13;99818.78;;;10.26;100.00
62725;BME280;49026;52.600;4.694;2023-10-31T05:11:38;99822.47;;;10.22;100.00
62725;BME280;49026;52.600;4.694;2023-10-31T05:14:03;99818.19;;;10.21;100.00
62725;BME280;49026;52.600;4.694;2023-10-31T05:16:29;99825.19;;;10.20;100.00
62725;BME280;49026;52.600;4.694;2023-10-31T05:18:54;99821.88;;;10.17;100.00
62725;BME280;49026;52.600;4.694;2023-10-31T05:21:20;99833.50;;;10.13;100.00
62725;BME280;49026;52.600;4.694;2023-10-31T05:23:46;99830.13;;;10.11;100.00
62725;BME280;49026;52.600;4.694;2023-10-31T05:26:11;99837.13;;;10.10;100.00
62725;BME280;49026;52.600;4.694;2023-10-31T05:28:36;99838.91;;;10.10;100.00
62725;BME280;49026;52.600;4.694;2023-10-31T05:31:02;99840.78;;;10.08;100.00
62725;BME280;49026;52.600;4.694;2023-10-31T05:33:28;99849.50;;;10.08;100.00
62725;BME280;49026;52.600;4.694;2023-10-31T05:35:53;99849.50;;;10.08;100.00
62725;BME280;49026;52.600;4.694;2023-10-31T05:38:19;99855.78;;;10.06;100.00
62725;BME280;49026;52.600;4.694;2023-10-31T05:40:44;99853.16;;;10.06;100.00
62725;BME280;49026;52.600;4.694;2023-10-31T05:43:13;99853.97;;;10.06;100.00
62725;BME280;49026;52.600;4.694;2023-10-31T05:45:38;99870.56;;;10.07;100.00
62725;BME280;49026;52.600;4.694;2023-10-31T05:48:03;99872.28;;;10.08;100.00
62725;BME280;49026;52.600;4.694;2023-10-31T05:50:29;99872.28;;;10.08;100.00
62725;BME280;49026;52.600;4.694;2023-10-31T05:52:55;99874.75;;;10.11;100.00
62725;BME280;49026;52.600;4.694;2023-10-31T05:55:21;99879.28;;;10.07;100.00
62725;BME280;49026;52.600;4.694;2023-10-31T05:57:48;99889.03;;;10.05;100.00
62725;BME280;49026;52.600;4.694;2023-10-31T06:00:13;99884.13;;;9.99;100.00
62725;BME280;49026;52.600;4.694;2023-10-31T06:02:39;99891.28;;;9.95;100.00
62725;BME280;49026;52.600;4.694;2023-10-31T06:05:04;99887.13;;;9.91;100.00
62725;BME280;49026;52.600;4.694;2023-10-31T06:07:30;99890.69;;;9.90;100.00
62725;BME280;49026;52.600;4.694;2023-10-31T06:09:55;99896.88;;;9.89;100.00
62725;BME280;49026;52.600;4.694;2023-10-31T06:12:21;99903.03;;;9.88;100.00
62725;BME280;49026;52.600;4.694;2023-10-31T06:14:48;99900.56;;;9.85;100.00
62725;BME280;49026;52.600;4.694;2023-10-31T06:17:13;99904.13;;;9.84;100.00
62725;BME280;49026;52.600;4.694;2023-10-31T06:19:38;99910.31;;;9.83;100.00
62725;BME280;49026;52.600;4.694;2023-10-31T06:22:10;99917.34;;;9.82;100.00
62725;BME280;49026;52.600;4.694;2023-10-31T06:24:35;99914.56;;;9.86;100.00
62725;BME280;49026;52.600;4.694;2023-10-31T06:27:00;99918.78;;;9.88;100.00
62725;BME280;49026;52.600;4.694;2023-10-31T06:29:25;99919.38;;;9.93;100.00
62725;BME280;49026;52.600;4.694;2023-10-31T06:31:53;99928.97;;;9.94;100.00
62725;BME280;49026;52.600;4.694;2023-10-31T06:34:18;99922.84;;;9.94;100.00
62725;BME280;49026;52.600;4.694;2023-10-31T06:36:47;99932.50;;;9.93;100.00
62725;BME280;49026;52.600;4.694;2023-10-31T06:39:12;99944.56;;;9.97;100.00
62725;BME280;49026;52.600;4.694;2023-10-31T06:41:37;99941.84;;;9.99;100.00
62725;BME280;49026;52.600;4.694;2023-10-31T06:44:05;99948.78;;;10.00;100.00
62725;BME280;49026;52.600;4.694;2023-10-31T06:46:30;99949.53;;;10.02;100.00
62725;BME280;49026;52.600;4.694;2023-10-31T06:48:58;99949.53;;;10.02;100.00
62725;BME280;49026;52.600;4.694;2023-10-31T06:51:23;99955.81;;;9.99;100.00
62725;BME280;49026;52.600;4.694;2023-10-31T06:53:51;99967.38;;;9.95;100.00
62725;BME280;49026;52.600;4.694;2023-10-31T06:56:16;99965.88;;;9.91;100.00
62725;BME280;49026;52.600;4.694;2023-10-31T06:58:44;99968.50;;;9.91;100.00
62725;BME280;49026;52.600;4.694;2023-10-31T07:01:09;99971.13;;;9.91;100.00
62725;BME280;49026;52.600;4.694;2023-10-31T07:03:36;99983.22;;;9.94;100.00
62725;BME280;49026;52.600;4.694;2023-10-31T07:06:03;99982.22;;;9.96;100.00
62725;BME280;49026;52.600;4.694;2023-10-31T07:08:31;99985.75;;;9.95;100.00
62725;BME280;49026;52.600;4.694;2023-10-31T07:10:56;99981.75;;;9.88;100.00
62725;BME280;49026;52.600;4.694;2023-10-31T07:13:21;99987.16;;;9.85;100.00
62725;BME280;49026;52.600;4.694;2023-10-31T07:15:49;99978.69;;;9.80;100.00
62725;BME280;49026;52.600;4.694;2023-10-31T07:18:17;99987.50;;;9.79;100.00
62725;BME280;49026;52.600;4.694;2023-10-31T07:20:45;99988.19;;;9.82;100.00
62725;BME280;49026;52.600;4.694;2023-10-31T07:23:10;99989.78;;;9.85;100.00
62725;BME280;49026;52.600;4.694;2023-10-31T07:25:36;99990.53;;;9.87;100.00
62725;BME280;49026;52.600;4.694;2023-10-31T07:28:04;99995.03;;;10.02;100.00
62725;BME280;49026;52.600;4.694;2023-10-31T07:30:29;99999.34;;;10.21;100.00
62725;BME280;49026;52.600;4.694;2023-10-31T07:32:55;100001.00;;;10.22;100.00
62725;BME280;49026;52.600;4.694;2023-10-31T07:35:22;100006.44;;;10.19;100.00
62725;BME280;49026;52.600;4.694;2023-10-31T07:37:48;100005.81;;;10.31;100.00
62725;BME280;49026;52.600;4.694;2023-10-31T07:40:16;100012.50;;;10.70;100.00
62725;BME280;49026;52.600;4.694;2023-10-31T07:42:42;100006.69;;;10.81;100.00
62725;BME280;49026;52.600;4.694;2023-10-31T07:45:07;100014.56;;;10.81;100.00
62725;BME280;49026;52.600;4.694;2023-10-31T07:47:37;100022.47;;;10.97;100.00
62725;BME280;49026;52.600;4.694;2023-10-31T07:50:06;100024.22;;;11.12;100.00
62725;BME280;49026;52.600;4.694;2023-10-31T07:52:31;100028.91;;;11.23;100.00
62725;BME280;49026;52.600;4.694;2023-10-31T07:54:56;100026.38;;;11.22;100.00
62725;BME280;49026;52.600;4.694;2023-10-31T07:57:24;100031.97;;;11.16;100.00
62725;BME280;49026;52.600;4.694;2023-10-31T07:59:49;100030.59;;;11.08;100.00
62725;BME280;49026;52.600;4.694;2023-10-31T08:02:14;100036.88;;;11.06;100.00
62725;BME280;49026;52.600;4.694;2023-10-31T08:04:40;100030.84;;;11.04;100.00
62725;BME280;49026;52.600;4.694;2023-10-31T08:07:05;100040.44;;;11.05;100.00
62725;BME280;49026;52.600;4.694;2023-10-31T08:09:37;100039.34;;;11.09;100.00
62725;BME280;49026;52.600;4.694;2023-10-31T08:12:03;100045.25;;;11.12;100.00
62725;BME280;49026;52.600;4.694;2023-10-31T08:14:28;100041.78;;;11.12;100.00
62725;BME280;49026;52.600;4.694;2023-10-31T08:16:53;100047.72;;;11.16;100.00
62725;BME280;49026;52.600;4.694;2023-10-31T08:19:19;100042.47;;;11.16;100.00
62725;BME280;49026;52.600;4.694;2023-10-31T08:21:44;100054.69;;;11.17;100.00
62725;BME280;49026;52.600;4.694;2023-10-31T08:24:09;100060.81;;;11.17;100.00
62725;BME280;49026;52.600;4.694;2023-10-31T08:26:35;100065.97;;;11.19;100.00
62725;BME280;49026;52.600;4.694;2023-10-31T08:29:00;100053.78;;;11.18;100.00
62725;BME280;49026;52.600;4.694;2023-10-31T08:31:26;100066.72;;;11.21;100.00
62725;BME280;49026;52.600;4.694;2023-10-31T08:33:53;100064.88;;;11.23;100.00
62725;BME280;49026;52.600;4.694;2023-10-31T08:36:19;100073.28;;;11.29;100.00
62725;BME280;49026;52.600;4.694;2023-10-31T08:38:46;100068.63;;;11.35;100.00
62725;BME280;49026;52.600;4.694;2023-10-31T08:41:12;100078.69;;;11.42;100.00
62725;BME280;49026;52.600;4.694;2023-10-31T08:43:37;100079.38;;;11.46;100.00
62725;BME280;49026;52.600;4.694;2023-10-31T08:46:10;100079.19;;;11.49;100.00
62725;BME280;49026;52.600;4.694;2023-10-31T08:48:35;100086.09;;;11.52;100.00
62725;BME280;49026;52.600;4.694;2023-10-31T08:51:00;100086.84;;;11.54;100.00
62725;BME280;49026;52.600;4.694;2023-10-31T08:53:25;100080.56;;;11.56;100.00
62725;BME280;49026;52.600;4.694;2023-10-31T08:55:51;100085.63;;;11.59;100.00
62725;BME280;49026;52.600;4.694;2023-10-31T08:58:16;100095.16;;;11.62;100.00
62725;BME280;49026;52.600;4.694;2023-10-31T09:00:43;100098.63;;;11.62;100.00
62725;BME280;49026;52.600;4.694;2023-10-31T09:03:11;100096.88;;;11.63;100.00
62725;BME280;49026;52.600;4.694;2023-10-31T09:05:37;100101.84;;;11.67;100.00
62725;BME280;49026;52.600;4.694;2023-10-31T09:08:02;100109.50;;;11.72;100.00
62725;BME280;49026;52.600;4.694;2023-10-31T09:10:32;100108.19;;;11.79;100.00
62725;BME280;49026;52.600;4.694;2023-10-31T09:12:57;100118.97;;;11.91;100.00
62725;BME280;49026;52.600;4.694;2023-10-31T09:15:28;100117.53;;;12.01;100.00
62725;BME280;49026;52.600;4.694;2023-10-31T09:17:53;100122.44;;;12.07;100.00
62725;BME280;49026;52.600;4.694;2023-10-31T09:20:19;100128.38;;;12.11;100.00
62725;BME280;49026;52.600;4.694;2023-10-31T09:22:44;100129.13;;;12.13;100.00
62725;BME280;49026;52.600;4.694;2023-10-31T09:25:09;100142.81;;;12.19;100.00
62725;BME280;49026;52.600;4.694;2023-10-31T09:27:37;100135.00;;;12.18;100.00
62725;BME280;49026;52.600;4.694;2023-10-31T09:30:02;100139.28;;;12.04;100.00
62725;BME280;49026;52.600;4.694;2023-10-31T09:32:27;100148.13;;;12.03;100.00
62725;BME280;49026;52.600;4.694;2023-10-31T09:34:53;100152.97;;;12.11;100.00
62725;BME280;49026;52.600;4.694;2023-10-31T09:37:18;100153.31;;;12.35;100.00
62725;BME280;49026;52.600;4.694;2023-10-31T09:39:43;100153.44;;;12.48;100.00
62725;BME280;49026;52.600;4.694;2023-10-31T09:42:11;100161.63;;;12.44;100.00
62725;BME280;49026;52.600;4.694;2023-10-31T09:44:38;100170.69;;;12.23;100.00
62725;BME280;49026;52.600;4.694;2023-10-31T09:47:05;100169.53;;;11.97;100.00
62725;BME280;49026;52.600;4.694;2023-10-31T09:49:31;100169.84;;;11.75;100.00
62725;BME280;49026;52.600;4.694;2023-10-31T09:51:58;100189.78;;;11.47;100.00
62725;BME280;49026;52.600;4.694;2023-10-31T09:54:25;100180.41;;;11.26;100.00
62725;BME280;49026;52.600;4.694;2023-10-31T09:56:51;100188.19;;;11.11;100.00
62725;BME280;49026;52.600;4.694;2023-10-31T09:59:16;100185.28;;;11.00;100.00
62725;BME280;49026;52.600;4.694;2023-10-31T10:01:42;100198.28;;;11.03;100.00
62725;BME280;49026;52.600;4.694;2023-10-31T10:04:07;100197.66;;;11.31;100.00
62725;BME280;49026;52.600;4.694;2023-10-31T10:06:33;100194.25;;;12.41;100.00
62725;BME280;49026;52.600;4.694;2023-10-31T10:08:58;100186.75;;;13.66;97.78
62725;BME280;49026;52.600;4.694;2023-10-31T10:11:24;100200.16;;;14.44;93.65
62725;BME280;49026;52.600;4.694;2023-10-31T10:13:53;100201.81;;;14.73;92.59
62725;BME280;49026;52.600;4.694;2023-10-31T10:16:29;100202.34;;;14.25;93.54
62725;BME280;49026;52.600;4.694;2023-10-31T10:18:55;100195.31;;;13.69;95.81
62725;BME280;49026;52.600;4.694;2023-10-31T10:21:20;100196.75;;;13.46;97.68
62725;BME280;49026;52.600;4.694;2023-10-31T10:23:46;100214.19;;;13.34;98.74
62725;BME280;49026;52.600;4.694;2023-10-31T10:26:13;100209.38;;;13.27;99.73
62725;BME280;49026;52.600;4.694;2023-10-31T10:28:38;100205.78;;;13.28;100.00
62725;BME280;49026;52.600;4.694;2023-10-31T10:31:03;100206.56;;;13.44;100.00
62725;BME280;49026;52.600;4.694;2023-10-31T10:33:29;100198.25;;;13.65;100.00
62725;BME280;49026;52.600;4.694;2023-10-31T10:35:54;100201.44;;;14.12;99.52
62725;BME280;49026;52.600;4.694;2023-10-31T10:38:24;100199.72;;;14.91;97.96
62725;BME280;49026;52.600;4.694;2023-10-31T10:40:50;100194.47;;;15.53;95.37
62725;BME280;49026;52.600;4.694;2023-10-31T10:43:21;100195.34;;;16.15;94.55
62725;BME280;49026;52.600;4.694;2023-10-31T10:45:54;100199.50;;;16.90;92.52
62725;BME280;49026;52.600;4.694;2023-10-31T10:48:21;100199.53;;;17.35;91.01
62725;BME280;49026;52.600;4.694;2023-10-31T10:50:52;100209.19;;;17.48;90.02
62725;BME280;49026;52.600;4.694;2023-10-31T10:53:24;100211.44;;;17.86;90.79
62725;BME280;49026;52.600;4.694;2023-10-31T10:56:03;100207.31;;;18.37;90.62
62725;BME280;49026;52.600;4.694;2023-10-31T10:59:00;100217.22;;;18.46;90.43
62725;BME280;49026;52.600;4.694;2023-10-31T11:01:26;100216.19;;;18.59;92.06
62725;BME280;49026;52.600;4.694;2023-10-31T11:03:54;100221.50;;;18.59;91.89
62725;BME280;49026;52.600;4.694;2023-10-31T11:06:21;100215.94;;;18.29;93.60
62725;BME280;49026;52.600;4.694;2023-10-31T11:08:47;100211.75;;;18.15;92.26
62725;BME280;49026;52.600;4.694;2023-10-31T11:11:12;100209.09;;;18.15;93.51
62725;BME280;49026;52.600;4.694;2023-10-31T11:13:41;100213.66;;;18.25;93.14
62725;BME280;49026;52.600;4.694;2023-10-31T11:16:13;100217.66;;;18.51;93.60
62725;BME280;49026;52.600;4.694;2023-10-31T11:18:41;100214.56;;;18.46;92.71
62725;BME280;49026;52.600;4.694;2023-10-31T11:21:06;100212.50;;;18.39;93.25
62725;BME280;49026;52.600;4.694;2023-10-31T11:23:32;100215.28;;;18.16;90.68
62725;BME280;49026;52.600;4.694;2023-10-31T11:25:59;100219.31;;;17.76;90.42
62725;BME280;49026;52.600;4.694;2023-10-31T11:28:25;100220.06;;;17.45;89.70
62725;BME280;49026;52.600;4.694;2023-10-31T11:30:51;100216.19;;;17.49;89.83
62725;BME280;49026;52.600;4.694;2023-10-31T11:33:23;100218.81;;;17.83;89.74
62725;BME280;49026;52.600;4.694;2023-10-31T11:35:50;100215.91;;;17.86;87.62
62725;BME280;49026;52.600;4.694;2023-10-31T11:38:16;100223.19;;;17.95;87.84
62725;BME280;49026;52.600;4.694;2023-10-31T11:43:09;100226.31;;;18.32;89.69
62725;BME280;49026;52.600;4.694;2023-10-31T11:45:37;100235.78;;;18.58;88.65
62725;BME280;49026;52.600;4.694;2023-10-31T11:48:07;100232.97;;;18.59;87.69
62725;BME280;49026;52.600;4.694;2023-10-31T11:50:35;100233.59;;;18.63;86.97
62725;BME280;49026;52.600;4.694;2023-10-31T11:53:08;100232.41;;;18.23;87.43
62725;BME280;49026;52.600;4.694;2023-10-31T11:55:40;100233.25;;;18.24;88.26
62725;BME280;49026;52.600;4.694;2023-10-31T11:58:22;100226.41;;;18.42;87.28
62725;BME280;49026;52.600;4.694;2023-10-31T12:00:51;100232.84;;;18.40;86.54
62725;BME280;49026;52.600;4.694;2023-10-31T12:03:19;100232.75;;;18.30;87.03
62725;BME280;49026;52.600;4.694;2023-10-31T12:06:13;100235.50;;;17.96;87.04
62725;BME280;49026;52.600;4.694;2023-10-31T12:08:43;100236.25;;;17.64;87.92
62725;BME280;49026;52.600;4.694;2023-10-31T12:16:17;100239.06;;;16.34;88.66
62725;BME280;49026;52.600;4.694;2023-10-31T12:18:43;100247.09;;;15.71;89.33
62725;BME280;49026;52.600;4.694;2023-10-31T12:21:08;100244.78;;;15.53;92.06
62725;BME280;49026;52.600;4.694;2023-10-31T12:23:36;100247.72;;;15.74;92.58
62725;BME280;49026;52.600;4.694;2023-10-31T12:26:01;100244.94;;;16.50;93.53
62725;BME280;49026;52.600;4.694;2023-10-31T12:28:26;100251.91;;;17.22;88.05
62725;BME280;49026;52.600;4.694;2023-10-31T12:30:54;100242.50;;;17.63;87.08
62725;BME280;49026;52.600;4.694;2023-10-31T12:33:20;100245.66;;;17.91;86.05
62725;BME280;49026;52.600;4.694;2023-10-31T12:35:49;100246.88;;;17.87;85.52
62725;BME280;49026;52.600;4.694;2023-10-31T12:38:15;100251.91;;;17.33;85.84
62725;BME280;49026;52.600;4.694;2023-10-31T12:40:42;100253.94;;;16.72;87.87
62725;BME280;49026;52.600;4.694;2023-10-31T12:43:09;100255.22;;;16.30;89.50
62725;BME280;49026;52.600;4.694;2023-10-31T12:45:37;100248.97;;;15.95;89.73
62725;BME280;49026;52.600;4.694;2023-10-31T12:48:07;100247.97;;;15.59;90.93
62725;BME280;49026;52.600;4.694;2023-10-31T12:50:34;100252.25;;;15.35;91.30
62725;BME280;49026;52.600;4.694;2023-10-31T12:53:02;100253.81;;;15.12;91.98
62725;BME280;49026;52.600;4.694;2023-10-31T12:55:29;100258.75;;;14.91;92.44
62725;BME280;49026;52.600;4.694;2023-10-31T12:57:58;100266.13;;;14.73;92.70